Terminal Aerodrome Forecast
Issued by NWS Sterling, VA

Home | Current Version | Previous Version | Text Only | Print | Product List | Glossary On
Versions: 1 2 3 4 5 6 7 8 9 10 11 12 13 14 15 16 17 18 19 20 21 22 23
000
FTUS41 KLWX 241400 AAA
TAFBWI
TAF AMD
KBWI 241459Z 2415/2518 19010G18KT P6SM BKN025
     FM241700 20015G25KT P6SM BKN035
     FM241900 20016G25KT P6SM SCT130
     FM250000 20011KT P6SM SCT250 WS020/21040KT
     FM250400 23009KT P6SM SCT150
     FM250900 29007KT P6SM SCT150=

USA.gov is the U.S. government's official web portal to all federal, state and local government web resources and services.